Time;durP1;ratioP1;P1;durP2;ratioP2;P2;SDS_P1;SDS_P2;PMS_P1;PMS_P2;Temp;Humidity;BMP_temperature;BMP_pressure;BME280_temperature;BME280_humidity;BME280_pressure;Samples;Min_cycle;Max_cycle;Signal;HPM_P1;HPM_P2
2021/03/05 00:00:13;;;;;;;9.47;8.57;;;;;;;;;;5031952;28;20189;-73
2021/03/05 00:02:40;;;;;;;9.77;7.97;;;;;;;;;;5031723;28;20186;-70
2021/03/05 00:05:06;;;;;;;8.17;7.37;;;;;;;;;;5031981;28;20272;-74
2021/03/05 00:07:32;;;;;;;11.10;7.83;;;;;;;;;;5031872;28;20186;-72
2021/03/05 00:09:58;;;;;;;7.87;7.10;;;;;;;;;;5027890;28;20203;-73
2021/03/05 00:12:44;;;;;;;7.10;6.47;;;;;;;;;;5026808;28;20217;-70
2021/03/05 00:15:11;;;;;;;8.93;6.83;;;;;;;;;;5031395;28;20289;-72
2021/03/05 00:17:37;;;;;;;7.27;6.63;;;;;;;;;;5031465;28;20174;-72
2021/03/05 00:20:24;;;;;;;8.27;7.07;;;;;;;;;;5031614;28;20178;-72
2021/03/05 00:22:50;;;;;;;9.03;6.67;;;;;;;;;;5017472;28;20233;-74
2021/03/05 00:25:16;;;;;;;6.97;6.37;;;;;;;;;;5029457;28;20199;-74
2021/03/05 00:27:42;;;;;;;8.43;7.17;;;;;;;;;;5031696;28;20714;-70
2021/03/05 00:30:09;;;;;;;6.87;6.17;;;;;;;;;;5032724;28;20202;-73
2021/03/05 00:32:36;;;;;;;7.47;6.60;;;;;;;;;;5033034;28;20194;-72
2021/03/05 00:35:07;;;;;;;7.67;6.93;;;;;;;;;;5031833;28;20206;-71
2021/03/05 00:37:33;;;;;;;9.27;7.53;;;;;;;;;;5031399;28;20197;-74
2021/03/05 00:39:59;;;;;;;9.73;6.93;;;;;;;;;;5031090;28;20201;-74
2021/03/05 00:42:25;;;;;;;6.87;6.17;;;;;;;;;;5031268;28;20181;-73
2021/03/05 00:44:52;;;;;;;8.30;7.13;;;;;;;;;;5030837;28;20228;-71
2021/03/05 00:47:18;;;;;;;8.10;7.23;;;;;;;;;;5022839;28;20189;-73
2021/03/05 00:49:43;;;;;;;11.27;7.63;;;;;;;;;;5031140;28;20219;-72
2021/03/05 00:52:09;;;;;;;8.97;7.50;;;;;;;;;;5029744;28;20186;-74
2021/03/05 00:54:35;;;;;;;8.30;7.17;;;;;;;;;;5030669;28;20202;-72
2021/03/05 00:57:01;;;;;;;9.13;7.80;;;;;;;;;;5031027;28;20562;-73
2021/03/05 00:59:27;;;;;;;8.13;7.27;;;;;;;;;;5031242;28;20256;-72
2021/03/05 01:01:54;;;;;;;8.20;7.03;;;;;;;;;;5030015;28;20197;-73
2021/03/05 01:04:20;;;;;;;8.40;7.43;;;;;;;;;;5029891;28;20221;-73
2021/03/05 01:06:46;;;;;;;8.93;7.60;;;;;;;;;;5032816;28;20188;-72
2021/03/05 01:09:12;;;;;;;7.77;6.87;;;;;;;;;;5036474;28;20198;-73
2021/03/05 01:11:38;;;;;;;7.80;7.17;;;;;;;;;;5026606;28;20185;-72
2021/03/05 01:14:04;;;;;;;7.33;6.63;;;;;;;;;;5035107;28;20217;-73
2021/03/05 01:16:30;;;;;;;7.93;7.23;;;;;;;;;;5034759;28;20224;-73
2021/03/05 01:18:57;;;;;;;7.60;6.80;;;;;;;;;;5034983;28;20194;-73
2021/03/05 01:21:23;;;;;;;9.73;7.67;;;;;;;;;;5034765;28;20178;-73
2021/03/05 01:23:49;;;;;;;8.63;7.57;;;;;;;;;;5034727;28;20209;-73
2021/03/05 01:26:15;;;;;;;7.90;7.10;;;;;;;;;;5034342;28;20684;-73
2021/03/05 01:28:45;;;;;;;7.40;6.70;;;;;;;;;;5034668;28;20202;-74
2021/03/05 01:31:11;;;;;;;9.93;6.70;;;;;;;;;;5035270;28;20240;-73
2021/03/05 01:33:38;;;;;;;7.30;6.60;;;;;;;;;;5034776;28;20192;-73
2021/03/05 01:36:04;;;;;;;9.77;6.80;;;;;;;;;;5034248;28;20269;-73
2021/03/05 01:38:30;;;;;;;7.63;6.93;;;;;;;;;;5034528;28;20181;-74
2021/03/05 01:40:56;;;;;;;8.70;7.23;;;;;;;;;;5034525;28;20197;-74
2021/03/05 01:43:22;;;;;;;9.87;6.77;;;;;;;;;;5034579;28;20569;-74
2021/03/05 01:45:48;;;;;;;8.33;7.17;;;;;;;;;;5033978;28;20241;-74
2021/03/05 01:48:16;;;;;;;8.97;7.50;;;;;;;;;;5050517;23;20187;-74
2021/03/05 01:50:45;;;;;;;9.30;7.20;;;;;;;;;;5057266;28;20202;-77
2021/03/05 01:53:11;;;;;;;8.73;7.10;;;;;;;;;;5060942;28;20636;-78
2021/03/05 01:55:37;;;;;;;8.13;7.33;;;;;;;;;;5057938;28;20182;-78
2021/03/05 01:58:03;;;;;;;8.67;7.80;;;;;;;;;;5044854;28;20183;-78
2021/03/05 02:00:37;;;;;;;8.20;7.40;;;;;;;;;;5034119;28;20190;-78
2021/03/05 02:03:04;;;;;;;8.80;7.90;;;;;;;;;;5040802;28;20215;-78
2021/03/05 02:05:30;;;;;;;9.33;7.30;;;;;;;;;;5039290;28;20248;-78
2021/03/05 02:07:57;;;;;;;9.33;8.37;;;;;;;;;;5039834;28;20204;-78
2021/03/05 02:10:23;;;;;;;9.33;8.23;;;;;;;;;;5041554;28;20238;-78
2021/03/05 02:12:50;;;;;;;13.10;9.20;;;;;;;;;;5040808;28;20641;-78
2021/03/05 02:15:16;;;;;;;9.60;8.17;;;;;;;;;;5041720;28;20214;-78
2021/03/05 02:17:51;;;;;;;8.23;7.50;;;;;;;;;;5041909;28;20202;-78
2021/03/05 02:20:23;;;;;;;8.57;7.70;;;;;;;;;;5042743;28;20238;-79
2021/03/05 02:23:05;;;;;;;8.97;8.07;;;;;;;;;;5043107;28;20193;-78
2021/03/05 02:25:37;;;;;;;11.87;8.63;;;;;;;;;;5042674;28;20178;-78
2021/03/05 02:28:19;;;;;;;9.70;8.30;;;;;;;;;;5042595;28;20182;-77
2021/03/05 02:31:05;;;;;;;9.53;8.63;;;;;;;;;;5039380;28;20179;-78
2021/03/05 02:33:36;;;;;;;9.60;8.70;;;;;;;;;;5039070;28;20771;-78
2021/03/05 02:36:05;;;;;;;10.63;8.43;;;;;;;;;;5040431;28;20186;-78
2021/03/05 02:38:32;;;;;;;82.20;40.27;;;;;;;;;;5040742;28;20289;-78
2021/03/05 02:40:59;;;;;;;10.50;9.00;;;;;;;;;;5040626;28;20233;-78
2021/03/05 02:43:29;;;;;;;22.97;16.47;;;;;;;;;;5038785;28;20269;-78
2021/03/05 02:46:05;;;;;;;37.53;21.20;;;;;;;;;;5039257;28;20175;-78
2021/03/05 02:48:34;;;;;;;10.63;9.53;;;;;;;;;;5037027;28;20198;-77
2021/03/05 02:51:02;;;;;;;13.83;11.47;;;;;;;;;;5039419;28;20187;-78
2021/03/05 02:53:29;;;;;;;10.53;9.47;;;;;;;;;;5039983;28;20277;-78
2021/03/05 02:55:56;;;;;;;15.07;11.50;;;;;;;;;;5039767;28;20182;-78
2021/03/05 02:58:23;;;;;;;12.63;11.20;;;;;;;;;;5039409;28;20178;-78
2021/03/05 03:00:50;;;;;;;14.17;11.60;;;;;;;;;;5025666;28;20187;-78
2021/03/05 03:03:18;;;;;;;13.67;11.37;;;;;;;;;;5042285;28;20646;-78
2021/03/05 03:05:45;;;;;;;16.27;12.20;;;;;;;;;;5042656;28;20195;-77
2021/03/05 03:08:11;;;;;;;17.07;13.93;;;;;;;;;;5042346;28;20194;-78
2021/03/05 03:10:37;;;;;;;13.57;12.23;;;;;;;;;;5036120;28;20202;-77
2021/03/05 03:13:05;;;;;;;14.00;11.73;;;;;;;;;;5036579;28;20725;-78
2021/03/05 03:15:33;;;;;;;15.67;13.57;;;;;;;;;;5037663;28;20186;-78
2021/03/05 03:18:00;;;;;;;14.10;12.17;;;;;;;;;;5040831;28;20182;-78
2021/03/05 03:20:27;;;;;;;13.10;11.63;;;;;;;;;;5041155;28;20217;-78
2021/03/05 03:22:53;;;;;;;14.57;12.40;;;;;;;;;;5041037;28;20190;-78
2021/03/05 03:25:20;;;;;;;14.23;11.83;;;;;;;;;;5041248;28;20183;-78
2021/03/05 03:27:46;;;;;;;15.13;11.73;;;;;;;;;;5042515;28;20186;-78
2021/03/05 03:30:13;;;;;;;14.17;12.50;;;;;;;;;;5041657;28;20628;-78
2021/03/05 03:32:39;;;;;;;27.17;15.73;;;;;;;;;;5042434;28;20595;-77
2021/03/05 03:35:07;;;;;;;18.77;13.10;;;;;;;;;;5039959;28;20221;-77
2021/03/05 03:37:34;;;;;;;14.37;11.87;;;;;;;;;;5034081;28;20198;-78
2021/03/05 03:40:01;;;;;;;16.70;12.70;;;;;;;;;;5039128;28;20214;-77
2021/03/05 03:42:28;;;;;;;28.53;16.70;;;;;;;;;;5037898;28;20186;-78
2021/03/05 03:44:54;;;;;;;15.47;12.30;;;;;;;;;;5035288;28;20198;-78
2021/03/05 03:47:22;;;;;;;14.97;12.53;;;;;;;;;;5037176;28;20256;-78
2021/03/05 03:49:50;;;;;;;14.17;11.37;;;;;;;;;;5036092;28;20214;-78
2021/03/05 03:52:19;;;;;;;13.63;11.30;;;;;;;;;;5040330;28;20668;-77
2021/03/05 03:54:46;;;;;;;17.10;13.20;;;;;;;;;;5036947;28;20177;-78
2021/03/05 03:57:14;;;;;;;13.60;11.30;;;;;;;;;;5040428;28;20190;-78
2021/03/05 03:59:40;;;;;;;13.20;11.37;;;;;;;;;;5037272;28;20203;-78
2021/03/05 04:02:07;;;;;;;13.57;11.03;;;;;;;;;;5029020;28;20670;-78
2021/03/05 04:04:35;;;;;;;13.60;11.23;;;;;;;;;;5036113;28;20235;-78
2021/03/05 04:07:01;;;;;;;12.60;10.50;;;;;;;;;;5037837;28;20179;-78
2021/03/05 04:09:29;;;;;;;11.07;9.97;;;;;;;;;;5038458;28;20600;-78
2021/03/05 04:11:56;;;;;;;10.77;9.77;;;;;;;;;;5041342;28;20190;-78
2021/03/05 04:14:24;;;;;;;12.83;10.63;;;;;;;;;;5044971;28;20229;-78
2021/03/05 04:16:52;;;;;;;13.03;11.57;;;;;;;;;;5043501;28;20201;-78
2021/03/05 04:19:18;;;;;;;25.03;16.53;;;;;;;;;;5043512;28;20203;-78
2021/03/05 04:21:44;;;;;;;11.57;10.43;;;;;;;;;;5043689;28;20198;-78
2021/03/05 04:24:11;;;;;;;13.10;11.27;;;;;;;;;;5043242;28;20206;-78
2021/03/05 04:26:37;;;;;;;12.03;10.83;;;;;;;;;;5043764;28;20211;-78
2021/03/05 04:29:04;;;;;;;14.97;12.37;;;;;;;;;;5041940;28;20222;-78
2021/03/05 04:31:30;;;;;;;13.67;12.27;;;;;;;;;;5042531;28;20183;-78
2021/03/05 04:33:56;;;;;;;12.90;11.60;;;;;;;;;;5034538;28;20187;-78
2021/03/05 04:36:22;;;;;;;15.97;11.37;;;;;;;;;;5038949;28;20954;-78
2021/03/05 04:38:49;;;;;;;12.83;11.53;;;;;;;;;;5037010;28;20211;-78
2021/03/05 04:41:15;;;;;;;16.67;13.10;;;;;;;;;;5038375;28;20185;-78
2021/03/05 04:43:41;;;;;;;15.70;12.83;;;;;;;;;;5032976;28;20713;-77
2021/03/05 04:46:07;;;;;;;13.37;11.57;;;;;;;;;;5025101;28;20188;-77
2021/03/05 04:48:33;;;;;;;13.00;11.43;;;;;;;;;;5038953;28;20258;-77
2021/03/05 04:50:59;;;;;;;13.60;11.10;;;;;;;;;;5039423;28;20250;-77
2021/03/05 04:53:26;;;;;;;14.00;10.73;;;;;;;;;;5033071;28;20182;-77
2021/03/05 04:55:52;;;;;;;12.20;10.60;;;;;;;;;;5036315;28;20179;-77
2021/03/05 04:58:19;;;;;;;11.43;10.17;;;;;;;;;;5029534;28;20270;-77
2021/03/05 05:00:45;;;;;;;11.43;10.20;;;;;;;;;;5027751;28;20202;-77
2021/03/05 05:03:11;;;;;;;12.07;10.77;;;;;;;;;;5020310;28;20182;-76
2021/03/05 05:05:39;;;;;;;13.97;11.20;;;;;;;;;;5023528;28;20184;-77
2021/03/05 05:08:05;;;;;;;11.30;10.20;;;;;;;;;;5028995;28;20210;-77
2021/03/05 05:10:31;;;;;;;12.30;10.87;;;;;;;;;;5037908;28;20568;-78
2021/03/05 05:12:57;;;;;;;13.13;11.30;;;;;;;;;;5043910;28;20544;-79
2021/03/05 05:15:23;;;;;;;13.70;10.50;;;;;;;;;;5035756;28;20189;-76
2021/03/05 05:17:50;;;;;;;14.50;11.67;;;;;;;;;;5037200;28;20238;-77
2021/03/05 05:20:16;;;;;;;14.13;11.57;;;;;;;;;;5033140;28;20268;-77
2021/03/05 05:22:42;;;;;;;11.83;10.63;;;;;;;;;;5036265;28;20649;-77
2021/03/05 05:25:09;;;;;;;14.27;11.77;;;;;;;;;;5036959;28;20178;-77
2021/03/05 05:27:35;;;;;;;13.67;12.27;;;;;;;;;;5035840;28;20266;-77
2021/03/05 05:30:01;;;;;;;11.73;10.53;;;;;;;;;;5034736;28;20688;-77
2021/03/05 05:32:27;;;;;;;13.00;11.67;;;;;;;;;;5035414;28;20174;-77
2021/03/05 05:34:53;;;;;;;13.13;11.57;;;;;;;;;;5039304;28;20187;-77
2021/03/05 05:37:19;;;;;;;15.00;11.47;;;;;;;;;;5044746;28;20183;-79
2021/03/05 05:39:45;;;;;;;12.43;11.13;;;;;;;;;;5043385;28;20211;-78
2021/03/05 05:42:11;;;;;;;10.57;9.57;;;;;;;;;;5043013;28;20185;-78
2021/03/05 05:44:37;;;;;;;11.60;10.43;;;;;;;;;;5039398;28;20180;-78
2021/03/05 05:47:04;;;;;;;11.83;10.30;;;;;;;;;;5040434;28;20183;-77
2021/03/05 05:49:30;;;;;;;10.80;9.80;;;;;;;;;;5039251;28;20215;-78
2021/03/05 05:52:00;;;;;;;12.93;11.47;;;;;;;;;;5039110;28;20178;-78
2021/03/05 05:54:27;;;;;;;14.53;10.80;;;;;;;;;;5043463;28;20226;-77
2021/03/05 05:56:54;;;;;;;11.57;10.47;;;;;;;;;;5044160;28;20193;-78
2021/03/05 05:59:20;;;;;;;11.73;10.63;;;;;;;;;;5049101;28;20199;-78
2021/03/05 06:01:47;;;;;;;11.60;10.50;;;;;;;;;;5048748;28;20184;-78
2021/03/05 06:04:15;;;;;;;11.37;10.37;;;;;;;;;;5045409;28;20191;-78
2021/03/05 06:06:42;;;;;;;11.60;10.40;;;;;;;;;;5035699;28;20178;-77
2021/03/05 06:09:08;;;;;;;11.17;10.17;;;;;;;;;;5042241;28;20206;-78
2021/03/05 06:11:35;;;;;;;9.90;9.00;;;;;;;;;;5045666;28;20179;-79
2021/03/05 06:14:02;;;;;;;9.77;8.87;;;;;;;;;;5043810;28;20184;-78
2021/03/05 06:16:28;;;;;;;13.70;10.37;;;;;;;;;;5034636;28;20176;-78
2021/03/05 06:18:54;;;;;;;10.20;9.20;;;;;;;;;;5042451;28;20221;-78
2021/03/05 06:21:37;;;;;;;10.30;9.30;;;;;;;;;;5042764;28;20175;-79
2021/03/05 06:24:05;;;;;;;11.33;10.13;;;;;;;;;;5039927;28;20182;-77
2021/03/05 06:26:46;;;;;;;11.07;9.90;;;;;;;;;;5041806;28;20193;-78
2021/03/05 06:29:12;;;;;;;11.50;10.30;;;;;;;;;;5044062;28;20208;-78
2021/03/05 06:31:38;;;;;;;10.43;9.47;;;;;;;;;;5046355;28;20202;-78
2021/03/05 06:34:05;;;;;;;12.87;10.90;;;;;;;;;;5048116;28;20257;-78
2021/03/05 06:36:31;;;;;;;10.70;9.70;;;;;;;;;;5048630;28;20203;-79
2021/03/05 06:38:58;;;;;;;10.73;9.73;;;;;;;;;;5048777;28;20245;-78
2021/03/05 06:41:24;;;;;;;15.13;13.10;;;;;;;;;;5047883;28;20182;-78
2021/03/05 06:43:53;;;;;;;16.63;13.27;;;;;;;;;;5045567;28;20582;-77
2021/03/05 06:46:29;;;;;;;15.53;13.57;;;;;;;;;;5041993;28;20183;-78
2021/03/05 06:48:55;;;;;;;20.93;15.30;;;;;;;;;;5040739;28;20238;-78
2021/03/05 06:51:21;;;;;;;21.33;15.40;;;;;;;;;;5042088;28;20189;-78
2021/03/05 06:53:48;;;;;;;23.60;17.17;;;;;;;;;;5043627;28;20183;-78
2021/03/05 06:56:27;;;;;;;19.97;15.73;;;;;;;;;;5042385;28;20182;-78
2021/03/05 06:59:05;;;;;;;20.60;16.17;;;;;;;;;;5045482;28;20227;-78
2021/03/05 07:01:32;;;;;;;19.13;15.17;;;;;;;;;;5042670;28;20186;-78
2021/03/05 07:04:11;;;;;;;18.30;15.30;;;;;;;;;;5043486;28;20550;-79
2021/03/05 07:06:39;;;;;;;16.07;14.40;;;;;;;;;;5050983;28;20202;-79
2021/03/05 07:09:07;;;;;;;17.80;15.47;;;;;;;;;;5049715;28;20206;-79
2021/03/05 07:11:36;;;;;;;19.43;15.97;;;;;;;;;;5042932;28;20175;-78
2021/03/05 07:14:03;;;;;;;23.47;17.20;;;;;;;;;;5043290;28;20179;-78
2021/03/05 07:16:39;;;;;;;16.97;15.00;;;;;;;;;;5041761;28;20237;-78
2021/03/05 07:19:05;;;;;;;19.67;16.03;;;;;;;;;;5037960;28;20611;-77
2021/03/05 07:21:33;;;;;;;17.27;14.87;;;;;;;;;;5041804;28;20186;-79
2021/03/05 07:24:02;;;;;;;19.47;16.23;;;;;;;;;;5043808;28;20270;-78
2021/03/05 07:26:30;;;;;;;19.53;16.30;;;;;;;;;;5045025;28;20190;-78
2021/03/05 07:28:57;;;;;;;20.17;16.10;;;;;;;;;;5041776;28;20576;-77
2021/03/05 07:31:24;;;;;;;20.40;16.10;;;;;;;;;;5042813;28;20188;-78
2021/03/05 07:33:51;;;;;;;22.10;16.60;;;;;;;;;;5038264;28;20195;-78
2021/03/05 07:36:18;;;;;;;23.70;16.87;;;;;;;;;;5042760;28;20213;-78
2021/03/05 07:38:45;;;;;;;22.87;15.73;;;;;;;;;;5042042;28;20206;-78
2021/03/05 07:41:12;;;;;;;17.93;15.13;;;;;;;;;;5041660;28;20182;-78
2021/03/05 07:43:39;;;;;;;17.10;14.07;;;;;;;;;;5045309;28;20187;-79
2021/03/05 07:46:05;;;;;;;15.57;13.87;;;;;;;;;;5042318;28;20225;-78
2021/03/05 07:48:36;;;;;;;15.73;13.50;;;;;;;;;;5045185;28;20621;-78
2021/03/05 07:51:03;;;;;;;15.17;13.43;;;;;;;;;;5039167;22;20237;-73
2021/03/05 07:53:29;;;;;;;14.97;13.47;;;;;;;;;;5027534;28;20176;-72
2021/03/05 07:55:55;;;;;;;13.77;12.30;;;;;;;;;;5010849;28;20210;-73
2021/03/05 07:58:40;;;;;;;13.30;12.00;;;;;;;;;;5013328;28;20301;-72
2021/03/05 08:01:06;;;;;;;13.90;12.47;;;;;;;;;;5013068;28;20196;-73
2021/03/05 08:03:54;;;;;;;13.00;11.73;;;;;;;;;;5025484;28;20272;-73
2021/03/05 08:06:28;;;;;;;12.00;10.13;;;;;;;;;;5021225;28;20182;-73
2021/03/05 08:09:14;;;;;;;12.30;9.97;;;;;;;;;;5033681;28;20252;-75
2021/03/05 08:11:40;;;;;;;11.73;10.07;;;;;;;;;;5025569;28;20175;-74
2021/03/05 08:14:26;;;;;;;10.63;9.63;;;;;;;;;;5033287;28;20178;-73
2021/03/05 08:16:53;;;;;;;9.60;8.60;;;;;;;;;;5033550;28;20178;-73
2021/03/05 08:19:19;;;;;;;10.17;8.43;;;;;;;;;;5022751;28;20256;-74
2021/03/05 08:21:52;;;;;;;9.07;8.17;;;;;;;;;;5021473;28;20236;-74
2021/03/05 08:24:21;;;;;;;9.47;8.43;;;;;;;;;;5025548;28;20205;-74
2021/03/05 08:27:07;;;;;;;9.67;8.77;;;;;;;;;;5022698;28;20170;-74
2021/03/05 08:29:48;;;;;;;9.50;8.00;;;;;;;;;;5011749;28;20216;-73
2021/03/05 08:32:37;;;;;;;9.80;7.67;;;;;;;;;;5018741;28;20177;-73
2021/03/05 08:35:19;;;;;;;10.23;8.50;;;;;;;;;;5031975;28;20640;-74
2021/03/05 08:37:47;;;;;;;11.10;9.83;;;;;;;;;;5032194;28;20578;-73
2021/03/05 08:40:13;;;;;;;11.83;10.33;;;;;;;;;;5019470;28;20322;-73
2021/03/05 08:42:40;;;;;;;12.93;10.73;;;;;;;;;;5032270;28;20185;-74
2021/03/05 08:45:09;;;;;;;11.40;10.20;;;;;;;;;;5032949;28;20206;-73
2021/03/05 08:47:36;;;;;;;14.67;11.73;;;;;;;;;;5033362;28;20174;-75
2021/03/05 08:50:03;;;;;;;9.53;8.47;;;;;;;;;;5029587;28;20214;-75
2021/03/05 08:52:30;;;;;;;16.87;12.93;;;;;;;;;;5024345;28;20646;-73
2021/03/05 08:54:56;;;;;;;10.37;9.13;;;;;;;;;;5024694;28;20213;-74
2021/03/05 08:57:22;;;;;;;10.27;9.27;;;;;;;;;;5033108;28;20182;-73
2021/03/05 08:59:51;;;;;;;8.80;8.00;;;;;;;;;;5028797;28;20632;-73
2021/03/05 09:02:17;;;;;;;10.70;9.57;;;;;;;;;;5027922;28;20214;-73
2021/03/05 09:04:43;;;;;;;11.37;9.10;;;;;;;;;;5032693;28;20232;-73
2021/03/05 09:07:13;;;;;;;10.20;9.17;;;;;;;;;;5031861;28;20187;-73
2021/03/05 09:09:40;;;;;;;9.83;8.83;;;;;;;;;;5031894;28;20298;-73
2021/03/05 09:12:12;;;;;;;10.10;8.77;;;;;;;;;;5025896;28;20175;-74
2021/03/05 09:14:38;;;;;;;9.73;8.73;;;;;;;;;;5032563;28;20269;-73
2021/03/05 09:17:06;;;;;;;8.60;7.70;;;;;;;;;;5033073;28;20227;-73
2021/03/05 09:19:35;;;;;;;10.03;8.27;;;;;;;;;;5032938;28;20197;-73
2021/03/05 09:22:27;;;;;;;8.20;7.43;;;;;;;;;;5033050;28;20178;-74
2021/03/05 09:24:54;;;;;;;13.23;11.90;;;;;;;;;;5024506;28;20255;-73
2021/03/05 09:27:22;;;;;;;9.07;8.17;;;;;;;;;;5033277;28;20189;-74
2021/03/05 09:29:48;;;;;;;7.93;7.13;;;;;;;;;;5036680;28;20696;-73
2021/03/05 09:32:14;;;;;;;10.40;7.40;;;;;;;;;;5020373;28;20175;-74
2021/03/05 09:34:54;;;;;;;11.30;9.03;;;;;;;;;;5035423;28;20186;-73
2021/03/05 09:37:21;;;;;;;32.77;18.43;;;;;;;;;;5018428;28;20214;-75
2021/03/05 09:39:48;;;;;;;16.70;11.90;;;;;;;;;;5016590;28;20203;-73
2021/03/05 09:42:14;;;;;;;12.60;9.80;;;;;;;;;;5021109;28;20209;-73
2021/03/05 09:44:47;;;;;;;22.97;14.50;;;;;;;;;;5015613;28;20215;-73
2021/03/05 09:47:13;;;;;;;13.60;10.20;;;;;;;;;;5016104;28;20210;-74
2021/03/05 09:49:40;;;;;;;13.00;9.47;;;;;;;;;;5024120;28;20210;-72
2021/03/05 09:52:06;;;;;;;20.63;13.50;;;;;;;;;;5017783;28;20242;-73
2021/03/05 09:54:35;;;;;;;19.83;12.77;;;;;;;;;;5035165;28;20198;-73
2021/03/05 09:57:01;;;;;;;8.97;8.00;;;;;;;;;;5022946;28;20185;-72
2021/03/05 09:59:48;;;;;;;7.27;6.60;;;;;;;;;;5034958;28;20206;-73
2021/03/05 10:02:20;;;;;;;6.67;5.70;;;;;;;;;;5036323;28;20265;-73
2021/03/05 10:04:47;;;;;;;23.13;11.50;;;;;;;;;;5035237;28;20190;-73
2021/03/05 10:07:14;;;;;;;14.57;9.70;;;;;;;;;;5035690;28;20181;-73
2021/03/05 10:09:40;;;;;;;7.70;6.43;;;;;;;;;;5033796;28;20206;-73
2021/03/05 10:12:06;;;;;;;6.27;5.77;;;;;;;;;;5027599;28;20179;-73
2021/03/05 10:14:36;;;;;;;14.43;10.83;;;;;;;;;;5035656;28;20178;-73
2021/03/05 10:17:13;;;;;;;17.20;12.50;;;;;;;;;;5035415;28;20204;-73
2021/03/05 10:19:40;;;;;;;7.70;6.00;;;;;;;;;;5031788;28;20635;-73
2021/03/05 10:22:07;;;;;;;7.70;6.20;;;;;;;;;;5025651;28;20186;-72
2021/03/05 10:24:34;;;;;;;6.90;5.97;;;;;;;;;;5003922;28;20213;-73
2021/03/05 10:29:45;;;;;;;7.60;6.80;;;;;;;;;;5008207;28;20226;-73
2021/03/05 10:32:32;;;;;;;9.93;8.93;;;;;;;;;;5006547;28;20179;-72
2021/03/05 10:35:00;;;;;;;7.93;6.67;;;;;;;;;;5004262;28;20175;-73
2021/03/05 10:37:27;;;;;;;6.70;6.10;;;;;;;;;;5015457;28;20537;-73
2021/03/05 10:39:53;;;;;;;13.93;9.87;;;;;;;;;;5012979;28;20210;-73
2021/03/05 10:42:21;;;;;;;8.57;7.63;;;;;;;;;;5010828;28;20752;-73
2021/03/05 10:44:48;;;;;;;12.63;7.43;;;;;;;;;;5010402;28;20214;-73
2021/03/05 10:47:16;;;;;;;7.73;7.03;;;;;;;;;;5015446;28;20175;-73
2021/03/05 10:49:42;;;;;;;7.57;6.87;;;;;;;;;;5005947;28;20253;-73
2021/03/05 10:52:12;;;;;;;7.03;6.33;;;;;;;;;;5012182;28;20209;-73
2021/03/05 10:54:39;;;;;;;10.83;6.73;;;;;;;;;;5007934;28;20183;-73
2021/03/05 10:57:05;;;;;;;8.13;7.33;;;;;;;;;;5008052;28;20291;-73
2021/03/05 10:59:31;;;;;;;7.23;6.27;;;;;;;;;;5007677;28;20203;-73
2021/03/05 11:01:57;;;;;;;6.73;5.87;;;;;;;;;;5012830;28;20199;-73
2021/03/05 11:04:24;;;;;;;7.93;7.13;;;;;;;;;;5010727;28;20171;-73
2021/03/05 11:06:51;;;;;;;11.77;9.60;;;;;;;;;;5011248;28;20284;-71
2021/03/05 11:09:17;;;;;;;9.10;7.70;;;;;;;;;;5007042;28;20641;-73
2021/03/05 11:11:44;;;;;;;30.10;16.57;;;;;;;;;;5012495;28;20271;-73
2021/03/05 11:14:11;;;;;;;13.00;9.03;;;;;;;;;;5006745;28;20187;-73
2021/03/05 11:16:37;;;;;;;8.70;7.80;;;;;;;;;;5010017;28;20184;-73
2021/03/05 11:19:03;;;;;;;33.60;18.80;;;;;;;;;;5014488;28;20207;-73
2021/03/05 11:21:29;;;;;;;8.03;6.97;;;;;;;;;;5011163;28;20219;-74
2021/03/05 11:23:55;;;;;;;8.03;6.60;;;;;;;;;;5014403;28;20188;-73
2021/03/05 11:26:22;;;;;;;67.87;31.53;;;;;;;;;;5010314;28;20541;-73
2021/03/05 11:28:48;;;;;;;190.27;69.87;;;;;;;;;;5007884;28;20186;-73
2021/03/05 11:31:14;;;;;;;38.43;18.53;;;;;;;;;;5008873;28;20184;-73
2021/03/05 11:33:43;;;;;;;11.67;8.87;;;;;;;;;;5008881;28;20182;-73
2021/03/05 11:36:09;;;;;;;18.47;11.67;;;;;;;;;;5006053;28;20171;-73
2021/03/05 11:38:35;;;;;;;39.57;21.27;;;;;;;;;;5010479;28;20226;-74
2021/03/05 11:41:01;;;;;;;14.30;10.73;;;;;;;;;;5007357;28;20203;-73
2021/03/05 11:43:28;;;;;;;14.53;10.73;;;;;;;;;;5003243;28;20191;-74
2021/03/05 11:45:55;;;;;;;9.47;8.57;;;;;;;;;;5006334;28;20213;-73
2021/03/05 11:48:21;;;;;;;7.77;6.47;;;;;;;;;;5025094;28;20188;-72
2021/03/05 11:50:47;;;;;;;6.87;5.83;;;;;;;;;;5032738;28;20268;-73
2021/03/05 11:53:13;;;;;;;6.07;4.97;;;;;;;;;;5033807;28;20594;-72
2021/03/05 11:55:39;;;;;;;13.57;12.37;;;;;;;;;;5026794;28;20722;-72
2021/03/05 11:58:05;;;;;;;7.00;6.30;;;;;;;;;;5022023;28;20214;-73
2021/03/05 12:00:31;;;;;;;7.10;6.50;;;;;;;;;;5032894;28;20714;-74
2021/03/05 12:02:59;;;;;;;12.97;6.53;;;;;;;;;;5029819;28;20185;-74
2021/03/05 12:05:25;;;;;;;7.20;5.37;;;;;;;;;;5024932;28;20705;-73
2021/03/05 12:07:51;;;;;;;7.20;5.50;;;;;;;;;;5032666;28;20200;-74
2021/03/05 12:10:18;;;;;;;6.80;5.73;;;;;;;;;;5016618;28;20616;-72
2021/03/05 12:12:44;;;;;;;8.53;5.80;;;;;;;;;;5025125;28;20185;-73
2021/03/05 12:15:10;;;;;;;6.93;5.43;;;;;;;;;;5010574;28;20316;-73
2021/03/05 12:17:36;;;;;;;9.03;6.73;;;;;;;;;;5029865;28;20177;-73
2021/03/05 12:20:03;;;;;;;10.87;5.53;;;;;;;;;;5012236;28;20220;-73
2021/03/05 12:22:29;;;;;;;8.43;6.27;;;;;;;;;;4997963;28;20615;-76
2021/03/05 12:24:55;;;;;;;7.47;5.83;;;;;;;;;;5031674;28;20193;-76
2021/03/05 12:27:22;;;;;;;7.10;6.40;;;;;;;;;;5031636;28;20239;-76
2021/03/05 12:29:49;;;;;;;6.90;6.20;;;;;;;;;;5031998;28;20206;-76
2021/03/05 12:32:15;;;;;;;9.40;6.80;;;;;;;;;;5033261;28;20194;-74
2021/03/05 12:34:41;;;;;;;9.90;7.83;;;;;;;;;;5033678;28;20174;-75
2021/03/05 12:37:08;;;;;;;10.23;8.27;;;;;;;;;;5033655;28;20181;-75
2021/03/05 12:39:34;;;;;;;8.33;7.53;;;;;;;;;;5033898;28;20262;-75
2021/03/05 12:42:00;;;;;;;11.43;7.13;;;;;;;;;;5033681;28;20204;-75
2021/03/05 12:44:26;;;;;;;6.97;6.27;;;;;;;;;;5030019;28;20175;-75
2021/03/05 12:46:52;;;;;;;8.10;7.00;;;;;;;;;;5024098;28;20197;-75
2021/03/05 12:49:18;;;;;;;7.50;5.60;;;;;;;;;;5033064;28;20688;-75
2021/03/05 12:51:44;;;;;;;7.70;5.80;;;;;;;;;;5033376;28;20221;-76
2021/03/05 12:54:10;;;;;;;7.17;6.47;;;;;;;;;;5032139;28;20264;-76
2021/03/05 12:56:36;;;;;;;7.53;5.90;;;;;;;;;;5033727;28;20553;-75
2021/03/05 12:59:03;;;;;;;7.80;5.90;;;;;;;;;;5033478;28;20272;-74
2021/03/05 13:01:29;;;;;;;6.30;5.70;;;;;;;;;;5032371;28;20184;-75
2021/03/05 13:03:55;;;;;;;6.63;5.93;;;;;;;;;;5037493;28;20672;-75
2021/03/05 13:06:21;;;;;;;6.13;4.97;;;;;;;;;;5037674;28;20264;-75
2021/03/05 13:08:47;;;;;;;8.43;4.63;;;;;;;;;;5037519;28;20610;-75
2021/03/05 13:11:13;;;;;;;7.27;4.70;;;;;;;;;;5028978;28;20183;-76
2021/03/05 13:13:39;;;;;;;5.20;4.70;;;;;;;;;;5037774;28;20178;-75
2021/03/05 13:16:06;;;;;;;5.77;5.17;;;;;;;;;;5037420;28;20181;-75
2021/03/05 13:18:32;;;;;;;5.23;4.73;;;;;;;;;;5037500;28;20181;-74
2021/03/05 13:20:58;;;;;;;5.63;4.70;;;;;;;;;;5037289;28;20624;-75
2021/03/05 13:23:24;;;;;;;5.63;4.70;;;;;;;;;;5037604;28;20552;-75
2021/03/05 13:25:50;;;;;;;5.07;4.57;;;;;;;;;;5036087;28;20186;-75
2021/03/05 13:28:17;;;;;;;6.30;4.27;;;;;;;;;;5035877;28;20189;-75
2021/03/05 13:30:44;;;;;;;5.93;5.33;;;;;;;;;;5037112;28;20223;-74
2021/03/05 13:33:10;;;;;;;5.77;5.17;;;;;;;;;;5037063;28;20261;-75
2021/03/05 13:35:36;;;;;;;7.00;6.30;;;;;;;;;;5037340;28;20256;-75
2021/03/05 13:38:03;;;;;;;8.33;5.20;;;;;;;;;;5036832;28;20182;-76
2021/03/05 13:40:29;;;;;;;7.53;6.53;;;;;;;;;;5037096;28;20201;-75
2021/03/05 13:42:56;;;;;;;6.10;5.40;;;;;;;;;;5037015;28;20192;-75
2021/03/05 13:45:22;;;;;;;7.67;5.33;;;;;;;;;;5037068;28;20265;-75
2021/03/05 13:47:49;;;;;;;5.83;4.93;;;;;;;;;;5036655;28;20190;-75
2021/03/05 13:50:15;;;;;;;7.60;5.80;;;;;;;;;;5059436;23;20275;-76
2021/03/05 13:52:41;;;;;;;8.07;5.23;;;;;;;;;;5049683;28;20180;-77
2021/03/05 13:55:07;;;;;;;6.60;5.40;;;;;;;;;;5028805;28;20588;-77
2021/03/05 13:57:34;;;;;;;6.13;5.50;;;;;;;;;;5055608;28;20543;-77
2021/03/05 14:00:00;;;;;;;7.33;6.30;;;;;;;;;;5056476;28;20731;-77
2021/03/05 14:02:26;;;;;;;6.77;6.00;;;;;;;;;;5042170;28;20177;-77
2021/03/05 14:04:53;;;;;;;6.27;4.83;;;;;;;;;;5056514;28;20185;-77
2021/03/05 14:07:19;;;;;;;6.70;5.80;;;;;;;;;;5056134;28;20648;-77
2021/03/05 14:09:45;;;;;;;6.63;5.77;;;;;;;;;;5054272;28;20256;-78
2021/03/05 14:12:11;;;;;;;7.63;6.83;;;;;;;;;;5036231;28;20190;-77
2021/03/05 14:14:37;;;;;;;7.83;5.73;;;;;;;;;;5035530;28;20577;-77
2021/03/05 14:17:03;;;;;;;12.13;8.30;;;;;;;;;;5035951;28;20177;-77
2021/03/05 14:19:30;;;;;;;7.60;6.53;;;;;;;;;;5035722;28;20767;-77
2021/03/05 14:21:56;;;;;;;6.93;6.03;;;;;;;;;;5036131;28;20177;-77
2021/03/05 14:24:22;;;;;;;6.63;5.67;;;;;;;;;;5036244;28;20189;-77
2021/03/05 14:26:48;;;;;;;8.50;6.00;;;;;;;;;;5034903;28;20212;-74
2021/03/05 14:29:15;;;;;;;8.70;6.10;;;;;;;;;;5036630;28;20222;-74
2021/03/05 14:31:41;;;;;;;5.90;5.30;;;;;;;;;;5034592;28;20248;-78
2021/03/05 14:34:08;;;;;;;8.83;7.73;;;;;;;;;;5034889;28;20175;-76
2021/03/05 14:36:34;;;;;;;7.73;7.03;;;;;;;;;;5036248;28;20183;-77